PWSweather.com
Personal Weather Stations
Station Observations
IMAZOWIE6
WarszawaPL

WarszawaPL

Lat: 52.27957, Lon: 21.05489

Elevation: 100

Station Type: WS1080

http://stacjapogody.waw.pl/

High Low Average
Temperature 35.1°F1.7°C 28.8°F-1.8°C 32.5°F0.3°C
Dew Point 13.6°F-10.2°C 1.6°F-16.9°C 5.9°F-14.5°C
Winds 5.4 mph 8.7 kmh Calm Calm 2.0 mph N3.2 kmh N
Wind Gusts 10.8 mph17.4 kmh 0.6 mph1.0 kmh 5.0 mph8.0 kmh
Humidity 42% 28% 32%
Pressure 29.52 in999.7 mb 29.07 in984.4 mb -
Precipitation 0.00 in0.0 mm - -
Hour Temp Dew Point Humidity Winds Wind Gusts Pressure Precip Precip Rate Daily Precip Total
12:06 AM 32.4°F0.2°C 2.7°F-16.3°C 28% 1.4 mph N2.3 kmh N 3.4 mph5.5 kmh 29.48 in998.3 mb 0.00 in0.0 mm 0.00 in0.0 mm 0.00 in0.0 mm
12:21 AM 32.0°F0.0°C 3.1°F-16.1°C 29% 1.4 mph N2.3 kmh N 4.0 mph6.4 kmh 29.49 in998.6 mb 0.00 in0.0 mm 0.00 in0.0 mm 0.00 in0.0 mm
12:36 AM 31.8°F-0.1°C 2.9°F-16.2°C 29% Calm Calm 0.6 mph1.0 kmh 29.49 in998.6 mb 0.00 in0.0 mm 0.00 in0.0 mm 0.00 in0.0 mm
12:51 AM 31.6°F-0.2°C 2.8°F-16.2°C 29% Calm Calm 2.0 mph3.2 kmh 29.49 in998.6 mb 0.00 in0.0 mm 0.00 in0.0 mm 0.00 in0.0 mm
01:06 AM 31.5°F-0.3°C 2.6°F-16.3°C 29% 1.4 mph N2.3 kmh N 3.4 mph5.5 kmh 29.49 in998.6 mb 0.00 in0.0 mm 0.00 in0.0 mm 0.00 in0.0 mm
01:21 AM 31.3°F-0.4°C 3.2°F-16.0°C 30% 2.0 mph N3.2 kmh N 3.4 mph5.5 kmh 29.50 in999.0 mb 0.00 in0.0 mm 0.00 in0.0 mm 0.00 in0.0 mm
01:36 AM 31.1°F-0.5°C 3.0°F-16.1°C 30% 2.8 mph N4.5 kmh N 5.4 mph8.7 kmh 29.50 in999.0 mb 0.00 in0.0 mm 0.00 in0.0 mm 0.00 in0.0 mm
01:51 AM 30.6°F-0.8°C 2.6°F-16.3°C 30% 2.0 mph N3.2 kmh N 4.0 mph6.4 kmh 29.50 in999.0 mb 0.00 in0.0 mm 0.00 in0.0 mm 0.00 in0.0 mm
02:06 AM 30.2°F-1.0°C 2.3°F-16.5°C 30% 2.0 mph N3.2 kmh N 4.0 mph6.4 kmh 29.50 in999.0 mb 0.00 in0.0 mm 0.00 in0.0 mm 0.00 in0.0 mm
02:21 AM 29.8°F-1.2°C 1.9°F-16.7°C 30% 2.8 mph N4.5 kmh N 5.4 mph8.7 kmh 29.50 in999.0 mb 0.00 in0.0 mm 0.00 in0.0 mm 0.00 in0.0 mm
02:36 AM 29.5°F-1.4°C 1.6°F-16.9°C 30% 2.0 mph N3.2 kmh N 4.0 mph6.4 kmh 29.51 in999.3 mb 0.00 in0.0 mm 0.00 in0.0 mm 0.00 in0.0 mm
02:51 AM 29.1°F-1.6°C 2.0°F-16.7°C 31% 1.4 mph N2.3 kmh N 2.8 mph4.5 kmh 29.50 in999.0 mb 0.00 in0.0 mm 0.00 in0.0 mm 0.00 in0.0 mm
03:06 AM 29.3°F-1.5°C 2.2°F-16.6°C 31% 2.8 mph N4.5 kmh N 5.4 mph8.7 kmh 29.50 in999.0 mb 0.00 in0.0 mm 0.00 in0.0 mm 0.00 in0.0 mm
03:21 AM 29.5°F-1.4°C 2.3°F-16.5°C 31% 2.8 mph N4.5 kmh N 4.0 mph6.4 kmh 29.50 in999.0 mb 0.00 in0.0 mm 0.00 in0.0 mm 0.00 in0.0 mm
03:36 AM 29.8°F-1.2°C 2.6°F-16.3°C 31% 1.4 mph N2.3 kmh N 4.0 mph6.4 kmh 29.50 in999.0 mb 0.00 in0.0 mm 0.00 in0.0 mm 0.00 in0.0 mm
03:51 AM 29.8°F-1.2°C 3.3°F-15.9°C 32% 2.0 mph N3.2 kmh N 4.8 mph7.7 kmh 29.50 in999.0 mb 0.00 in0.0 mm 0.00 in0.0 mm 0.00 in0.0 mm
04:06 AM 30.0°F-1.1°C 3.5°F-15.8°C 32% 2.0 mph N3.2 kmh N 4.0 mph6.4 kmh 29.50 in999.0 mb 0.00 in0.0 mm 0.00 in0.0 mm 0.00 in0.0 mm
04:21 AM 29.5°F-1.4°C 3.0°F-16.1°C 32% 1.4 mph N2.3 kmh N 2.8 mph4.5 kmh 29.50 in999.0 mb 0.00 in0.0 mm 0.00 in0.0 mm 0.00 in0.0 mm
04:36 AM 29.3°F-1.5°C 2.9°F-16.2°C 32% 2.0 mph N3.2 kmh N 4.8 mph7.7 kmh 29.50 in999.0 mb 0.00 in0.0 mm 0.00 in0.0 mm 0.00 in0.0 mm
04:51 AM 29.5°F-1.4°C 3.0°F-16.1°C 32% 2.0 mph N3.2 kmh N 4.0 mph6.4 kmh 29.50 in999.0 mb 0.00 in0.0 mm 0.00 in0.0 mm 0.00 in0.0 mm
05:06 AM 29.5°F-1.4°C 3.0°F-16.1°C 32% 0.6 mph N1.0 kmh N 2.8 mph4.5 kmh 29.50 in999.0 mb 0.00 in0.0 mm 0.00 in0.0 mm 0.00 in0.0 mm
05:21 AM 29.3°F-1.5°C 2.9°F-16.2°C 32% 0.6 mph N1.0 kmh N 2.8 mph4.5 kmh 29.50 in999.0 mb 0.00 in0.0 mm 0.00 in0.0 mm 0.00 in0.0 mm
05:36 AM 29.7°F-1.3°C 3.2°F-16.0°C 32% 2.0 mph N3.2 kmh N 4.0 mph6.4 kmh 29.50 in999.0 mb 0.00 in0.0 mm 0.00 in0.0 mm 0.00 in0.0 mm
05:51 AM 29.7°F-1.3°C 3.2°F-16.0°C 32% 2.0 mph N3.2 kmh N 4.8 mph7.7 kmh 29.50 in999.0 mb 0.00 in0.0 mm 0.00 in0.0 mm 0.00 in0.0 mm
06:06 AM 29.5°F-1.4°C 3.0°F-16.1°C 32% 2.0 mph N3.2 kmh N 5.4 mph8.7 kmh 29.51 in999.3 mb 0.00 in0.0 mm 0.00 in0.0 mm 0.00 in0.0 mm
06:21 AM 29.1°F-1.6°C 2.7°F-16.3°C 32% 2.0 mph N3.2 kmh N 4.0 mph6.4 kmh 29.50 in999.0 mb 0.00 in0.0 mm 0.00 in0.0 mm 0.00 in0.0 mm
06:36 AM 28.9°F-1.7°C 2.5°F-16.4°C 32% 1.4 mph N2.3 kmh N 4.0 mph6.4 kmh 29.50 in999.0 mb 0.00 in0.0 mm 0.00 in0.0 mm 0.00 in0.0 mm
06:51 AM 29.1°F-1.6°C 2.7°F-16.3°C 32% 2.8 mph N4.5 kmh N 5.4 mph8.7 kmh 29.49 in998.6 mb 0.00 in0.0 mm 0.00 in0.0 mm 0.00 in0.0 mm
07:06 AM 28.8°F-1.8°C 2.4°F-16.4°C 32% 1.4 mph N2.3 kmh N 2.8 mph4.5 kmh 29.49 in998.6 mb 0.00 in0.0 mm 0.00 in0.0 mm 0.00 in0.0 mm
07:21 AM 28.9°F-1.7°C 3.2°F-16.0°C 33% 1.4 mph N2.3 kmh N 2.8 mph4.5 kmh 29.49 in998.6 mb 0.00 in0.0 mm 0.00 in0.0 mm 0.00 in0.0 mm
07:36 AM 29.5°F-1.4°C 3.7°F-15.7°C 33% 1.4 mph N2.3 kmh N 2.8 mph4.5 kmh 29.50 in999.0 mb 0.00 in0.0 mm 0.00 in0.0 mm 0.00 in0.0 mm
07:51 AM 29.5°F-1.4°C 3.7°F-15.7°C 33% 3.4 mph N5.5 kmh N 6.2 mph10.0 kmh 29.50 in999.0 mb 0.00 in0.0 mm 0.00 in0.0 mm 0.00 in0.0 mm
08:06 AM 29.5°F-1.4°C 3.7°F-15.7°C 33% 2.8 mph N4.5 kmh N 6.8 mph10.9 kmh 29.50 in999.0 mb 0.00 in0.0 mm 0.00 in0.0 mm 0.00 in0.0 mm
08:21 AM 29.7°F-1.3°C 3.8°F-15.7°C 33% 1.4 mph N2.3 kmh N 3.4 mph5.5 kmh 29.51 in999.3 mb 0.00 in0.0 mm 0.00 in0.0 mm 0.00 in0.0 mm
08:36 AM 29.8°F-1.2°C 4.0°F-15.6°C 33% 2.0 mph N3.2 kmh N 6.8 mph10.9 kmh 29.51 in999.3 mb 0.00 in0.0 mm 0.00 in0.0 mm 0.00 in0.0 mm
08:51 AM 30.0°F-1.1°C 4.2°F-15.4°C 33% 2.0 mph N3.2 kmh N 4.8 mph7.7 kmh 29.51 in999.3 mb 0.00 in0.0 mm 0.00 in0.0 mm 0.00 in0.0 mm
09:06 AM 30.2°F-1.0°C 4.3°F-15.4°C 33% 4.8 mph N7.7 kmh N 8.2 mph13.2 kmh 29.51 in999.3 mb 0.00 in0.0 mm 0.00 in0.0 mm 0.00 in0.0 mm
09:21 AM 30.6°F-0.8°C 4.6°F-15.2°C 33% 2.0 mph N3.2 kmh N 4.8 mph7.7 kmh 29.52 in999.7 mb 0.00 in0.0 mm 0.00 in0.0 mm 0.00 in0.0 mm
09:36 AM 31.1°F-0.5°C 4.4°F-15.3°C 32% 2.8 mph N4.5 kmh N 6.2 mph10.0 kmh 29.52 in999.7 mb 0.00 in0.0 mm 0.00 in0.0 mm 0.00 in0.0 mm
09:51 AM 31.3°F-0.4°C 4.6°F-15.2°C 32% 3.4 mph N5.5 kmh N 5.4 mph8.7 kmh 29.51 in999.3 mb 0.00 in0.0 mm 0.00 in0.0 mm 0.00 in0.0 mm
10:06 AM 31.6°F-0.2°C 4.2°F-15.4°C 31% 1.4 mph N2.3 kmh N 3.4 mph5.5 kmh 29.51 in999.3 mb 0.00 in0.0 mm 0.00 in0.0 mm 0.00 in0.0 mm
10:21 AM 31.8°F-0.1°C 4.4°F-15.3°C 31% 1.4 mph N2.3 kmh N 4.0 mph6.4 kmh 29.51 in999.3 mb 0.00 in0.0 mm 0.00 in0.0 mm 0.00 in0.0 mm
10:36 AM 32.0°F0.0°C 4.5°F-15.3°C 31% 0.6 mph N1.0 kmh N 2.0 mph3.2 kmh 29.50 in999.0 mb 0.00 in0.0 mm 0.00 in0.0 mm 0.00 in0.0 mm
10:51 AM 32.7°F0.4°C 5.2°F-14.9°C 31% 1.4 mph N2.3 kmh N 2.8 mph4.5 kmh 29.50 in999.0 mb 0.00 in0.0 mm 0.00 in0.0 mm 0.00 in0.0 mm
11:06 AM 33.3°F0.7°C 5.7°F-14.6°C 31% 1.4 mph N2.3 kmh N 4.8 mph7.7 kmh 29.50 in999.0 mb 0.00 in0.0 mm 0.00 in0.0 mm 0.00 in0.0 mm
11:21 AM 33.1°F0.6°C 4.8°F-15.1°C 30% 1.4 mph N2.3 kmh N 4.0 mph6.4 kmh 29.49 in998.6 mb 0.00 in0.0 mm 0.00 in0.0 mm 0.00 in0.0 mm
11:36 AM 33.4°F0.8°C 5.1°F-14.9°C 30% 1.4 mph N2.3 kmh N 2.8 mph4.5 kmh 29.48 in998.3 mb 0.00 in0.0 mm 0.00 in0.0 mm 0.00 in0.0 mm
11:51 AM 34.0°F1.1°C 5.6°F-14.7°C 30% 2.8 mph N4.5 kmh N 4.8 mph7.7 kmh 29.48 in998.3 mb 0.00 in0.0 mm 0.00 in0.0 mm 0.00 in0.0 mm
12:06 PM 34.2°F1.2°C 5.7°F-14.6°C 30% 1.4 mph N2.3 kmh N 3.4 mph5.5 kmh 29.47 in998.0 mb 0.00 in0.0 mm 0.00 in0.0 mm 0.00 in0.0 mm
12:21 PM 34.0°F1.1°C 5.6°F-14.7°C 30% 1.4 mph N2.3 kmh N 4.8 mph7.7 kmh 29.47 in998.0 mb 0.00 in0.0 mm 0.00 in0.0 mm 0.00 in0.0 mm
12:36 PM 34.0°F1.1°C 5.6°F-14.7°C 30% 1.4 mph N2.3 kmh N 3.4 mph5.5 kmh 29.46 in997.6 mb 0.00 in0.0 mm 0.00 in0.0 mm 0.00 in0.0 mm
12:51 PM 34.2°F1.2°C 5.7°F-14.6°C 30% 2.0 mph N3.2 kmh N 4.0 mph6.4 kmh 29.46 in997.6 mb 0.00 in0.0 mm 0.00 in0.0 mm 0.00 in0.0 mm
01:06 PM 34.0°F1.1°C 5.6°F-14.7°C 30% 1.4 mph N2.3 kmh N 3.4 mph5.5 kmh 29.45 in997.3 mb 0.00 in0.0 mm 0.00 in0.0 mm 0.00 in0.0 mm
01:21 PM 34.5°F1.4°C 6.0°F-14.4°C 30% 1.4 mph N2.3 kmh N 3.4 mph5.5 kmh 29.44 in997.0 mb 0.00 in0.0 mm 0.00 in0.0 mm 0.00 in0.0 mm
01:36 PM 34.3°F1.3°C 5.9°F-14.5°C 30% 2.0 mph N3.2 kmh N 3.4 mph5.5 kmh 29.44 in997.0 mb 0.00 in0.0 mm 0.00 in0.0 mm 0.00 in0.0 mm
01:51 PM 34.5°F1.4°C 6.0°F-14.4°C 30% 2.8 mph N4.5 kmh N 5.4 mph8.7 kmh 29.44 in997.0 mb 0.00 in0.0 mm 0.00 in0.0 mm 0.00 in0.0 mm
02:06 PM 34.5°F1.4°C 5.3°F-14.8°C 29% 1.4 mph N2.3 kmh N 3.4 mph5.5 kmh 29.44 in997.0 mb 0.00 in0.0 mm 0.00 in0.0 mm 0.00 in0.0 mm
02:21 PM 34.5°F1.4°C 5.3°F-14.8°C 29% 3.4 mph N5.5 kmh N 6.2 mph10.0 kmh 29.44 in997.0 mb 0.00 in0.0 mm 0.00 in0.0 mm 0.00 in0.0 mm
02:36 PM 34.5°F1.4°C 5.3°F-14.8°C 29% 1.4 mph N2.3 kmh N 2.8 mph4.5 kmh 29.44 in997.0 mb 0.00 in0.0 mm 0.00 in0.0 mm 0.00 in0.0 mm
02:51 PM 34.3°F1.3°C 5.1°F-14.9°C 29% 2.0 mph N3.2 kmh N 4.8 mph7.7 kmh 29.43 in996.6 mb 0.00 in0.0 mm 0.00 in0.0 mm 0.00 in0.0 mm
03:06 PM 34.2°F1.2°C 5.0°F-15.0°C 29% 2.0 mph N3.2 kmh N 3.4 mph5.5 kmh 29.42 in996.3 mb 0.00 in0.0 mm 0.00 in0.0 mm 0.00 in0.0 mm
03:21 PM 33.6°F0.9°C 4.5°F-15.3°C 29% 2.0 mph N3.2 kmh N 3.4 mph5.5 kmh 29.42 in996.3 mb 0.00 in0.0 mm 0.00 in0.0 mm 0.00 in0.0 mm
03:36 PM 33.6°F0.9°C 4.5°F-15.3°C 29% 2.0 mph N3.2 kmh N 4.8 mph7.7 kmh 29.42 in996.3 mb 0.00 in0.0 mm 0.00 in0.0 mm 0.00 in0.0 mm
03:51 PM 33.8°F1.0°C 4.7°F-15.2°C 29% 2.0 mph N3.2 kmh N 3.4 mph5.5 kmh 29.41 in995.9 mb 0.00 in0.0 mm 0.00 in0.0 mm 0.00 in0.0 mm
04:06 PM 34.0°F1.1°C 4.8°F-15.1°C 29% 1.4 mph N2.3 kmh N 2.8 mph4.5 kmh 29.40 in995.6 mb 0.00 in0.0 mm 0.00 in0.0 mm 0.00 in0.0 mm
04:21 PM 34.2°F1.2°C 5.7°F-14.6°C 30% 2.0 mph N3.2 kmh N 3.4 mph5.5 kmh 29.39 in995.3 mb 0.00 in0.0 mm 0.00 in0.0 mm 0.00 in0.0 mm
04:36 PM 34.2°F1.2°C 5.7°F-14.6°C 30% 2.0 mph N3.2 kmh N 4.8 mph7.7 kmh 29.38 in994.9 mb 0.00 in0.0 mm 0.00 in0.0 mm 0.00 in0.0 mm
04:51 PM 34.3°F1.3°C 5.9°F-14.5°C 30% 2.8 mph N4.5 kmh N 4.8 mph7.7 kmh 29.37 in994.6 mb 0.00 in0.0 mm 0.00 in0.0 mm 0.00 in0.0 mm
05:06 PM 34.3°F1.3°C 5.9°F-14.5°C 30% 1.4 mph N2.3 kmh N 2.8 mph4.5 kmh 29.37 in994.6 mb 0.00 in0.0 mm 0.00 in0.0 mm 0.00 in0.0 mm
05:21 PM 34.3°F1.3°C 6.6°F-14.1°C 31% 2.0 mph N3.2 kmh N 4.0 mph6.4 kmh 29.36 in994.2 mb 0.00 in0.0 mm 0.00 in0.0 mm 0.00 in0.0 mm
05:36 PM 34.3°F1.3°C 7.3°F-13.7°C 32% 3.4 mph N5.5 kmh N 4.8 mph7.7 kmh 29.35 in993.9 mb 0.00 in0.0 mm 0.00 in0.0 mm 0.00 in0.0 mm
05:51 PM 34.3°F1.3°C 7.3°F-13.7°C 32% 2.0 mph N3.2 kmh N 4.0 mph6.4 kmh 29.33 in993.2 mb 0.00 in0.0 mm 0.00 in0.0 mm 0.00 in0.0 mm
06:06 PM 34.2°F1.2°C 7.1°F-13.8°C 32% 1.4 mph N2.3 kmh N 3.4 mph5.5 kmh 29.33 in993.2 mb 0.00 in0.0 mm 0.00 in0.0 mm 0.00 in0.0 mm
06:21 PM 34.2°F1.2°C 7.8°F-13.4°C 33% 1.4 mph N2.3 kmh N 3.4 mph5.5 kmh 29.32 in992.9 mb 0.00 in0.0 mm 0.00 in0.0 mm 0.00 in0.0 mm
06:36 PM 34.3°F1.3°C 8.6°F-13.0°C 34% 2.0 mph N3.2 kmh N 3.4 mph5.5 kmh 29.31 in992.6 mb 0.00 in0.0 mm 0.00 in0.0 mm 0.00 in0.0 mm
06:51 PM 34.3°F1.3°C 8.6°F-13.0°C 34% 2.8 mph N4.5 kmh N 4.8 mph7.7 kmh 29.30 in992.2 mb 0.00 in0.0 mm 0.00 in0.0 mm 0.00 in0.0 mm
07:06 PM 34.3°F1.3°C 9.3°F-12.6°C 35% 2.0 mph N3.2 kmh N 4.0 mph6.4 kmh 29.29 in991.9 mb 0.00 in0.0 mm 0.00 in0.0 mm 0.00 in0.0 mm
07:21 PM 34.5°F1.4°C 9.4°F-12.6°C 35% 2.8 mph N4.5 kmh N 4.8 mph7.7 kmh 29.28 in991.5 mb 0.00 in0.0 mm 0.00 in0.0 mm 0.00 in0.0 mm
07:36 PM 34.7°F1.5°C 10.2°F-12.1°C 36% 2.8 mph N4.5 kmh N 5.4 mph8.7 kmh 29.27 in991.2 mb 0.00 in0.0 mm 0.00 in0.0 mm 0.00 in0.0 mm
07:51 PM 34.7°F1.5°C 10.2°F-12.1°C 36% 3.4 mph N5.5 kmh N 6.2 mph10.0 kmh 29.26 in990.9 mb 0.00 in0.0 mm 0.00 in0.0 mm 0.00 in0.0 mm
08:06 PM 34.9°F1.6°C 11.0°F-11.7°C 37% 3.4 mph N5.5 kmh N 6.2 mph10.0 kmh 29.25 in990.5 mb 0.00 in0.0 mm 0.00 in0.0 mm 0.00 in0.0 mm
08:21 PM 34.9°F1.6°C 11.0°F-11.7°C 37% 4.8 mph N7.7 kmh N 7.4 mph11.9 kmh 29.24 in990.2 mb 0.01 in0.3 mm 0.05 in1.3 mm 0.01 in0.3 mm
08:36 PM 34.9°F1.6°C 11.0°F-11.7°C 37% 2.8 mph N4.5 kmh N 5.4 mph8.7 kmh 29.23 in989.8 mb 0.01 in0.3 mm 0.00 in0.0 mm 0.01 in0.3 mm
08:51 PM 35.1°F1.7°C 11.8°F-11.2°C 38% 2.8 mph N4.5 kmh N 6.8 mph10.9 kmh 29.22 in989.5 mb 0.01 in0.3 mm 0.00 in0.0 mm 0.01 in0.3 mm
09:06 PM 35.1°F1.7°C 11.8°F-11.2°C 38% 3.4 mph N5.5 kmh N 5.4 mph8.7 kmh 29.21 in989.2 mb 0.01 in0.3 mm 0.00 in0.0 mm 0.01 in0.3 mm
09:21 PM 35.1°F1.7°C 11.8°F-11.2°C 38% 3.4 mph N5.5 kmh N 6.2 mph10.0 kmh 29.19 in988.5 mb 0.00 in0.0 mm 0.00 in0.0 mm 0.01 in0.3 mm
09:36 PM 35.1°F1.7°C 12.4°F-10.9°C 39% 3.4 mph N5.5 kmh N 6.2 mph10.0 kmh 29.18 in988.1 mb 0.00 in0.0 mm 0.00 in0.0 mm 0.01 in0.3 mm
09:51 PM 35.1°F1.7°C 12.4°F-10.9°C 39% 2.8 mph N4.5 kmh N 4.8 mph7.7 kmh 29.17 in987.8 mb 0.00 in0.0 mm 0.00 in0.0 mm 0.01 in0.3 mm
10:06 PM 34.9°F1.6°C 12.2°F-11.0°C 39% 4.0 mph N6.4 kmh N 10.8 mph17.4 kmh 29.16 in987.5 mb 0.00 in0.0 mm 0.00 in0.0 mm 0.01 in0.3 mm
10:21 PM 34.7°F1.5°C 12.0°F-11.1°C 39% 5.4 mph N8.7 kmh N 9.6 mph15.4 kmh 29.15 in987.1 mb 0.00 in0.0 mm 0.00 in0.0 mm 0.01 in0.3 mm
10:36 PM 35.1°F1.7°C 12.9°F-10.6°C 40% 3.4 mph N5.5 kmh N 6.2 mph10.0 kmh 29.14 in986.8 mb 0.00 in0.0 mm 0.00 in0.0 mm 0.01 in0.3 mm
10:51 PM 34.9°F1.6°C 12.8°F-10.7°C 40% 4.0 mph N6.4 kmh N 6.2 mph10.0 kmh 29.13 in986.5 mb 0.00 in0.0 mm 0.00 in0.0 mm 0.01 in0.3 mm
11:06 PM 34.9°F1.6°C 12.8°F-10.7°C 40% 4.0 mph N6.4 kmh N 8.2 mph13.2 kmh 29.11 in985.8 mb 0.00 in0.0 mm 0.00 in0.0 mm 0.01 in0.3 mm
11:21 PM 34.9°F1.6°C 13.3°F-10.4°C 41% 2.8 mph N4.5 kmh N 5.4 mph8.7 kmh 29.10 in985.4 mb 0.00 in0.0 mm 0.00 in0.0 mm 0.01 in0.3 mm
11:36 PM 34.7°F1.5°C 13.2°F-10.4°C 41% 4.8 mph N7.7 kmh N 6.8 mph10.9 kmh 29.08 in984.8 mb 0.01 in0.3 mm 0.05 in1.3 mm 0.02 in0.5 mm
11:51 PM 34.5°F1.4°C 13.6°F-10.2°C 42% 4.0 mph N6.4 kmh N 8.2 mph13.2 kmh 29.07 in984.4 mb 0.01 in0.3 mm 0.00 in0.0 mm 0.02 in0.5 mm